Latest Weather Observations for Groote Eylandt Airport

IDD60801

Issued at 5:31 pm CST Monday 25 September 2017 (issued every 30 minutes, with the page automatically refreshed every 10 minutes)

About weather observations | Map of weather stations | Latest weather observations for NT | Other Formats
Station Details ID: 014518 Name: GROOTE EYLANDT AIRPORT Lat: -13.97 Lon: 136.46 Height: 13.7 m
Data from the previous 72 hours. | See also: Recent months at Groote Eylandt Airport
Date/Time
CST
Temp
°C
App
Temp
°C
Dew
Point
°C
Rel
Hum
%
Delta-T
°C
Wind Press
QNH
hPa
Press
MSL
hPa
Rain since
9am
mm
Dir  Spd
km/h
Gust
km/h
Spd
kts
Gust
kts
25/05:30pm 29.7 31.3 22.2 64 5.1 NE 17 26 9 14 1010.0 1009.9 0.0
25/05:00pm 30.3 31.5 22.5 63 5.3 NNE 20 28 11 15 1009.7 1009.6 0.0
25/04:30pm 31.6 32.6 21.7 55 6.7 NE 19 28 10 15 1009.4 1009.3 0.0
25/04:00pm 31.0 31.7 21.5 57 6.4 NNE 20 30 11 16 1009.5 1009.4 0.0
25/03:30pm 31.8 33.1 21.6 54 6.9 NE 17 26 9 14 1009.6 1009.5 0.0
25/03:00pm 32.9 33.6 20.4 47 8.3 ENE 17 26 9 14 1009.9 1009.8 0.0
25/02:30pm 33.5 34.4 21.6 49 8.1 NE 19 26 10 14 1010.0 1009.9 0.0
25/02:00pm 32.6 33.2 21.1 50 7.7 NE 19 33 10 18 1010.3 1010.2 0.0
25/01:30pm 32.6 33.5 21.5 52 7.5 NE 19 32 10 17 1010.7 1010.6 0.0
25/01:00pm 32.5 33.6 22.0 54 7.1 NE 19 30 10 16 1011.1 1011.0 0.0
25/12:30pm 31.4 32.0 21.0 54 7.0 NE 19 30 10 16 1011.5 1011.4 0.0
25/12:00pm 32.7 33.6 21.5 51 7.6 NNE 19 26 10 14 1011.9 1011.8 0.0
25/11:30am 31.9 33.9 20.8 51 7.4 NNE 11 26 6 14 1012.4 1012.3 0.0
25/11:00am 31.0 32.2 20.6 54 6.9 N 15 22 8 12 1012.8 1012.7 0.0
25/10:30am 30.8 31.3 20.1 53 7.1 NE 17 26 9 14 1013.2 1013.1 0.0
25/10:00am 29.9 30.9 20.2 56 6.4 NNE 15 20 8 11 1013.5 1013.4 0.0
25/09:30am 29.6 32.5 21.8 63 5.3 NNE 9 19 5 10 1013.6 1013.5 0.0
25/09:00am 28.4 30.6 21.9 68 4.4 NE 13 19 7 10 1013.8 1013.7 0.0
25/08:41am 28.0 31.0 22.7 73 3.6 NNE 11 19 6 10 1013.7 1013.6 0.0
25/08:30am 27.0 30.6 22.4 76 3.1 NNW 7 13 4 7 1013.7 1013.6 0.0
25/08:26am 26.9 30.6 22.5 77 3.0 NNW 7 13 4 7 1013.7 1013.6 0.0
25/08:00am 26.1 30.0 22.6 81 2.4 NE 6 7 3 4 1013.5 1013.4 0.0
25/07:30am 23.6 27.9 21.1 86 1.6 CALM 0 0 0 0 1013.0 1012.9 0.0
25/07:00am 21.1 23.7 19.2 89 1.2 E 4 7 2 4 1012.6 1012.5 0.0
25/06:30am 19.5 22.4 18.2 92 0.8 CALM 0 0 0 0 1012.1 1012.0 0.0
25/06:00am 19.1 20.7 17.8 92 0.8 E 6 6 3 3 1011.5 1011.4 0.0
25/05:30am 19.6 21.3 18.1 91 0.9 E 6 7 3 4 1011.3 1011.2 0.0
25/05:00am 19.7 21.4 18.0 90 1.0 E 6 7 3 4 1011.0 1010.9 0.0
25/04:30am 20.3 23.5 18.8 91 0.9 CALM 0 0 0 0 1010.7 1010.6 0.0
25/04:00am 20.7 22.7 18.8 89 1.2 ENE 6 6 3 3 1010.4 1010.3 0.0
25/03:30am 20.6 22.7 18.9 90 1.1 ENE 6 7 3 4 1010.3 1010.2 0.0
25/03:00am 21.1 23.2 19.0 88 1.3 ENE 6 7 3 4 1010.2 1010.1 0.0
25/02:30am 22.0 24.5 21.0 94 0.7 ENE 9 9 5 5 1010.3 1010.2 0.0
25/02:00am 20.9 22.8 19.7 93 0.8 E 9 9 5 5 1010.6 1010.5 0.0
25/01:30am 20.4 22.5 18.9 91 0.9 E 6 6 3 3 1010.9 1010.8 0.0
25/01:00am 20.4 22.5 18.9 91 0.9 E 6 7 3 4 1011.0 1010.9 0.0
25/12:30am 20.8 24.1 19.1 90 1.1 CALM 0 0 0 0 1011.2 1011.1 0.0
25/12:00am 20.9 24.2 19.2 90 1.1 CALM 0 0 0 0 1011.5 1011.4 0.0
 
Date/Time
CST
Temp
°C
App
Temp
°C
Dew
Point
°C
Rel
Hum
%
Delta-T
°C
Wind Press
QNH
hPa
Press
MSL
hPa
Rain since
9am
mm
Dir  Spd
km/h
Gust
km/h
Spd
kts
Gust
kts
24/11:30pm 21.3 24.7 19.4 89 1.2 CALM 0 0 0 0 1011.7 1011.6 0.0
24/11:00pm 21.9 25.5 19.8 88 1.3 CALM 0 0 0 0 1011.9 1011.8 0.0
24/10:30pm 22.2 25.9 19.9 87 1.5 CALM 0 0 0 0 1011.8 1011.7 0.0
24/10:00pm 22.8 25.5 20.3 86 1.6 E 6 7 3 4 1011.8 1011.7 0.0
24/09:30pm 23.3 25.9 20.4 84 1.9 E 7 7 4 4 1011.7 1011.6 0.0
24/09:00pm 23.8 26.4 20.1 80 2.4 E 6 7 3 4 1011.6 1011.5 0.0
24/08:30pm 24.7 27.4 20.2 76 2.9 E 6 6 3 3 1011.3 1011.2 0.0
24/08:00pm 25.6 28.8 20.4 73 3.4 E 4 6 2 3 1010.9 1010.8 0.0
24/07:30pm 26.3 28.8 19.9 68 4.2 ENE 6 7 3 4 1010.6 1010.5 0.0
24/07:00pm 27.3 29.7 20.1 64 4.7 ENE 7 11 4 6 1010.3 1010.2 0.0
24/06:30pm 27.9 29.4 19.7 61 5.3 ENE 11 13 6 7 1010.1 1010.0 0.0
24/06:00pm 29.0 29.8 19.0 54 6.5 ENE 13 17 7 9 1009.7 1009.6 0.0
24/05:30pm 29.8 29.8 18.9 52 7.1 E 17 22 9 12 1009.6 1009.5 0.0
24/05:00pm 30.4 30.2 19.4 51 7.2 ENE 19 26 10 14 1009.3 1009.2 0.0
24/04:30pm 31.2 31.4 20.2 52 7.3 ENE 19 26 10 14 1009.2 1009.1 0.0
24/04:00pm 31.6 31.8 20.5 51 7.4 NE 20 30 11 16 1009.1 1009.0 0.0
24/03:30pm 31.6 31.1 19.2 47 8.1 ENE 20 28 11 15 1009.1 1009.0 0.0
24/03:00pm 32.7 32.4 19.6 46 8.6 ENE 20 30 11 16 1009.4 1009.3 0.0
24/02:30pm 32.7 31.5 18.5 43 9.2 ENE 22 32 12 17 1009.6 1009.5 0.0
24/02:00pm 32.8 32.6 19.3 45 8.9 NE 19 28 10 15 1009.8 1009.7 0.0
24/01:30pm 32.8 32.2 19.7 46 8.7 ENE 22 33 12 18 1010.1 1010.0 0.0
24/01:00pm 33.0 33.9 21.5 50 7.8 NE 19 37 10 20 1010.6 1010.5 0.0
24/12:30pm 33.3 33.8 20.1 45 8.8 ENE 17 28 9 15 1011.0 1010.9 0.0
24/12:00pm 33.2 33.3 20.0 45 8.8 ENE 19 28 10 15 1011.4 1011.3 0.0
24/11:30am 32.8 34.6 20.3 47 8.3 NE 11 22 6 12 1012.1 1012.0 0.0
24/11:00am 31.6 33.6 21.5 55 6.8 NE 13 26 7 14 1012.5 1012.4 0.0
24/10:30am 30.9 33.2 21.4 57 6.4 N 11 22 6 12 1013.0 1012.9 0.0
24/10:00am 30.0 33.0 21.9 62 5.5 NNE 9 15 5 8 1013.2 1013.1 0.0
24/09:30am 30.0 32.4 22.2 63 5.3 NE 13 20 7 11 1013.3 1013.2 0.0
24/09:00am 28.6 29.9 21.6 66 4.7 NNE 17 24 9 13 1013.3 1013.2 0.0
24/08:30am 28.0 30.0 22.2 70 3.9 NE 15 24 8 13 1013.3 1013.2 0.0
24/08:00am 26.3 30.1 22.8 81 2.4 ESE 7 11 4 6 1013.1 1013.0 0.0
24/07:30am 24.5 28.4 22.6 89 1.3 ESE 6 7 3 4 1013.0 1012.9 0.0
24/07:00am 21.6 23.8 19.5 88 1.3 E 7 7 4 4 1012.6 1012.5 0.0
24/06:30am 20.0 21.8 18.7 92 0.8 E 7 9 4 5 1012.3 1012.2 0.0
24/06:00am 19.7 21.0 18.5 93 0.7 ESE 9 11 5 6 1012.1 1012.0 0.0
24/05:30am 19.7 21.0 18.5 93 0.7 E 9 9 5 5 1011.8 1011.7 0.0
24/05:00am 19.1 19.9 17.4 90 1.0 E 9 9 5 5 1011.3 1011.2 0.0
24/04:30am 20.0 21.5 18.1 89 1.2 E 7 9 4 5 1011.1 1011.0 0.0
24/04:00am 20.2 22.1 18.5 90 1.1 E 6 9 3 5 1011.1 1011.0 0.0
24/03:30am 20.4 22.2 18.7 90 1.1 ENE 7 9 4 5 1010.8 1010.7 0.0
24/03:00am 20.3 22.0 18.6 90 1.1 ENE 7 9 4 5 1010.6 1010.5 0.0
24/02:30am 20.4 21.9 18.9 91 0.9 E 9 9 5 5 1011.0 1010.9 0.0
24/02:00am 20.8 23.1 19.5 92 0.8 E 6 9 3 5 1011.3 1011.2 0.0
24/01:30am 20.5 23.4 19.0 91 0.9 E 2 7 1 4 1011.6 1011.5 0.0
24/01:00am 20.7 22.6 19.0 90 1.1 E 7 7 4 4 1011.9 1011.8 0.0
24/12:30am 21.5 24.0 19.8 90 1.1 ENE 6 7 3 4 1012.1 1012.0 0.0
24/12:00am 22.1 24.5 19.6 86 1.6 ENE 6 7 3 4 1012.4 1012.3 0.0
 
Date/Time
CST
Temp
°C
App
Temp
°C
Dew
Point
°C
Rel
Hum
%
Delta-T
°C
Wind Press
QNH
hPa
Press
MSL
hPa
Rain since
9am
mm
Dir  Spd
km/h
Gust
km/h
Spd
kts
Gust
kts
23/11:30pm 23.3 26.4 21.4 89 1.3 NNE 7 9 4 5 1012.6 1012.5 0.0
23/11:00pm 23.4 27.4 21.3 88 1.4 E 2 7 1 4 1012.8 1012.7 0.0
23/10:30pm 23.1 26.2 21.0 88 1.4 ESE 6 7 3 4 1013.0 1012.9 0.0
23/10:00pm 23.1 27.1 20.6 86 1.6 CALM 0 7 0 4 1013.0 1012.9 0.0
23/09:30pm 23.9 27.8 20.4 81 2.3 CALM 0 0 0 0 1012.7 1012.6 0.0
23/09:00pm 24.9 28.9 20.6 77 2.8 CALM 0 6 0 3 1012.5 1012.4 0.0
23/08:30pm 25.5 29.6 20.7 75 3.1 CALM 0 0 0 0 1012.3 1012.2 0.0
23/08:00pm 26.8 29.2 20.9 70 3.9 E 9 9 5 5 1011.9 1011.8 0.0
23/07:30pm 27.5 29.1 20.8 67 4.4 E 13 17 7 9 1011.7 1011.6 0.0
23/07:00pm 28.2 30.4 20.5 63 5.1 E 9 13 5 7 1011.4 1011.3 0.0
23/06:30pm 29.4 31.3 20.5 58 5.9 ENE 11 15 6 8 1011.2 1011.1 0.0
23/06:00pm 30.6 31.4 19.9 52 7.0 E 15 17 8 9 1010.9 1010.8 0.0
23/05:30pm 31.5 32.4 20.1 50 7.5 E 15 20 8 11 1010.8 1010.7 0.0
23/05:00pm 32.1 33.2 20.4 50 7.8 E 15 24 8 13 1010.5 1010.4 0.0
23/04:30pm 32.4 32.9 20.0 48 8.2 E 17 26 9 14 1010.5 1010.4 0.0
23/04:00pm 33.1 33.5 19.9 45 8.7 ENE 17 28 9 15 1010.4 1010.3 0.0
23/03:30pm 33.3 32.8 18.6 41 9.6 ENE 19 28 10 15 1010.4 1010.3 0.0
23/03:00pm 33.8 32.9 18.3 39 10.1 ENE 20 32 11 17 1010.6 1010.5 0.0
23/02:30pm 33.7 32.6 17.8 38 10.3 ENE 20 30 11 16 1010.9 1010.8 0.0
23/02:00pm 34.1 32.8 17.3 36 10.8 ENE 20 30 11 16 1011.3 1011.2 0.0
23/01:30pm 34.1 32.5 16.5 35 11.2 NE 20 30 11 16 1011.5 1011.4 0.0
23/01:00pm 34.4 32.7 16.3 34 11.5 ENE 20 30 11 16 1011.8 1011.7 0.0
23/12:30pm 34.4 32.9 16.3 34 11.5 NE 19 33 10 18 1012.4 1012.3 0.0
23/12:00pm 33.0 33.3 19.5 45 8.9 NE 17 30 9 16 1012.9 1012.8 0.0
23/11:30am 33.2 32.5 18.2 41 9.7 NE 19 32 10 17 1013.1 1013.0 0.0
23/11:00am 33.7 34.7 19.4 43 9.4 E 13 22 7 12 1013.5 1013.4 0.0
23/10:30am 32.5 32.6 17.5 40 9.6 NE 13 24 7 13 1013.8 1013.7 0.0
23/10:00am 30.8 32.2 19.5 51 7.4 N 11 20 6 11 1014.1 1014.0 0.0
23/09:30am 30.5 31.3 19.8 52 7.0 NNE 15 20 8 11 1014.3 1014.2 0.0
23/09:00am 29.5 30.1 19.5 55 6.5 NNE 15 22 8 12 1014.4 1014.3 0.0
23/08:30am 27.8 30.3 21.8 70 4.0 NE 11 15 6 8 1014.2 1014.1 0.0
23/08:00am 25.5 29.2 22.6 84 2.0 ENE 7 11 4 6 1014.0 1013.9 0.0
23/07:30am 23.4 26.2 21.5 89 1.3 E 9 9 5 5 1013.8 1013.7 0.0
23/07:00am 20.1 23.3 18.8 92 0.8 CALM 0 6 0 3 1013.4 1013.3 0.0
23/06:30am 18.8 20.8 17.8 94 0.6 ESE 4 6 2 3 1013.0 1012.9 0.0
23/06:00am 18.6 20.4 17.4 93 0.7 E 4 7 2 4 1012.8 1012.7 0.0
23/05:30am 19.2 22.0 18.0 93 0.7 CALM 0 0 0 0 1012.4 1012.3 0.0
23/05:00am 19.4 22.3 18.1 92 0.8 CALM 0 0 0 0 1012.1 1012.0 0.0
23/04:30am 19.6 22.5 18.3 92 0.8 CALM 0 0 0 0 1011.8 1011.7 0.0
23/04:00am 19.9 23.0 18.6 92 0.8 CALM 0 0 0 0 1011.6 1011.5 0.0
23/03:30am 20.2 23.4 18.9 92 0.8 CALM 0 0 0 0 1011.6 1011.5 0.0
23/03:00am 20.5 23.8 19.0 91 0.9 CALM 0 0 0 0 1011.7 1011.6 0.0
23/02:30am 20.6 23.9 19.1 91 0.9 CALM 0 0 0 0 1011.9 1011.8 0.0
23/02:00am 21.1 24.6 19.6 91 1.0 CALM 0 0 0 0 1012.3 1012.2 0.0
23/01:30am 21.5 24.1 20.1 92 0.9 E 6 7 3 4 1012.5 1012.4 0.0
23/01:00am 21.7 25.4 20.0 90 1.1 CALM 0 0 0 0 1012.8 1012.7 0.0
23/12:30am 22.3 26.3 20.6 90 1.1 CALM 0 0 0 0 1013.0 1012.9 0.0
23/12:00am 22.9 27.0 20.8 88 1.4 CALM 0 0 0 0 1013.3 1013.2 0.0
 
Date/Time
CST
Temp
°C
App
Temp
°C
Dew
Point
°C
Rel
Hum
%
Delta-T
°C
Wind Press
QNH
hPa
Press
MSL
hPa
Rain since
9am
mm
Dir  Spd
km/h
Gust
km/h
Spd
kts
Gust
kts
22/11:30pm 23.3 26.6 21.4 89 1.3 E 6 7 3 4 1013.5 1013.4 0.0
22/11:00pm 23.3 26.4 21.4 89 1.3 ESE 7 7 4 4 1013.7 1013.6 0.0
22/10:30pm 23.6 26.7 21.5 88 1.4 E 7 9 4 5 1013.7 1013.6 0.0
22/10:00pm 23.9 27.6 21.4 86 1.6 E 4 7 2 4 1013.6 1013.5 0.0
22/09:30pm 24.4 27.7 21.5 84 1.9 ESE 6 6 3 3 1013.6 1013.5 0.0
22/09:00pm 25.8 29.1 21.9 79 2.6 ENE 7 11 4 6 1013.6 1013.5 0.0
22/08:30pm 26.1 29.1 22.0 78 2.7 ENE 9 13 5 7 1013.4 1013.3 0.0
22/08:00pm 26.5 29.5 21.9 76 3.1 ENE 9 13 5 7 1013.1 1013.0 0.0
22/07:30pm 27.0 29.5 21.7 73 3.5 ENE 11 15 6 8 1012.7 1012.6 0.0
22/07:00pm 27.6 29.3 21.6 70 4.0 ENE 15 17 8 9 1012.2 1012.1 0.0
22/06:30pm 28.5 30.0 21.3 65 4.8 ENE 15 19 8 10 1011.9 1011.8 0.0
22/06:00pm 29.7 30.7 21.1 60 5.7 ENE 17 20 9 11 1011.6 1011.5 0.0

Other Formats:

Comma delimited format used in spreadsheet applications
http://www.bom.gov.au/fwo/IDD60801/IDD60801.94153.axf

JavaScript Object Notation format (JSON) in row-major order
http://www.bom.gov.au/fwo/IDD60801/IDD60801.94153.json